Informes METAR

 

LEZL - Sevilla, Spain
Distancia de la estación: ENE 8km
Actualización: 18/04/2014 12:00
Neblina, Cubierto
Neblina, Cubierto
 Viento de SO
Viento: SO 17 km/h
Temperatura: 17°C
Rocío: 15°C
Humedad: 88%
Barómetro: 1017 hPa
Resumen: Neblina
Nubes: Cubierto
Visibilidad: 5 km
Detalles de las nubes: Poco nuboso 305 m
Cubierto 610 m
2014/04/18 10:00 LEZL 181000Z 22009KT 5000 BR FEW010 OVC020 17/15 Q1017 NOSIG
LEMO - Morón, Spain
Distancia de la estación: SE 43km
Actualización: 18/04/2014 12:00
Muy nuboso
Muy nuboso
 Viento de SSO
Viento: SSO 17 km/h
Temperatura: 20°C
Rocío: 15°C
Humedad: 73%
Barómetro: 1017 hPa
Nubes: Muy nuboso
Visibilidad: 7 km
Detalles de las nubes: Parcialmente nuboso 488 m
Muy nuboso 701 m
2014/04/18 10:00 LEMO 181000Z 21009KT 7000 SCT016 BKN023 20/15 Q1017 NOSIG
LEJR - Jeréz, Spain
Distancia de la estación: S 71km
Actualización: 18/04/2014 12:30
Muy nuboso
Muy nuboso
 Viento de SSO
Viento: SSO 17 km/h
Temperatura: 20°C
Rocío: 15°C
Humedad: 73%
Barómetro: 1017 hPa
Nubes: Muy nuboso
Visibilidad: 9 km
Detalles de las nubes: Parcialmente nuboso 549 m
Muy nuboso 732 m
2014/04/18 10:30 LEJR 181030Z 20009KT 150V230 9000 SCT018 BKN024 20/15 Q1017
 
LERT - Rota, Spain
Distancia de la estación: SSO 89km
Actualización: 18/04/2014 12:00
Muy nuboso
Muy nuboso
 Viento de S
Viento: S 17 km/h
Temperatura: 19°C
Rocío: 14°C
Humedad: 73%
Barómetro: 1016 hPa
Nubes: Muy nuboso
Visibilidad: 9 km
Detalles de las nubes: Poco nuboso 457 m
Muy nuboso 914 m
2014/04/18 10:00 LERT 181000Z 18009KT 150V220 9000 FEW015 BKN030 19/14 Q1016 NOSIG
LEMG - Málaga, Spain
Distancia de la estación: ESE 157km
Actualización: 18/04/2014 12:30
Despejado
Despejado
 Viento de SE
Viento: SE 15 km/h
Temperatura: 21°C
Rocío: 11°C
Humedad: 53%
Barómetro: 1015 hPa
Resumen: Despejado
Visibilidad: mayor de 10 km
2014/04/18 10:30 LEMG 181030Z 14008KT 110V180 CAVOK 21/11 Q1015 NOSIG
LEBA - Córdoba, Spain
Distancia de la estación: ENE 115km
Actualización: 18/04/2014 12:00
Despejado
Despejado
 Viento de O
Viento: O 17 km/h
Temperatura: 19°C
Rocío: 13°C
Humedad: 68%
Barómetro: 1016 hPa
Resumen: Despejado
Visibilidad: mayor de 10 km
2014/04/18 10:00 LEBA 181000Z 26009KT 220V320 CAVOK 19/13 Q1016
 
LEGR - Granada, Spain
Distancia de la estación: E 198km
Actualización: 18/04/2014 12:30
Poco nuboso
Poco nuboso
 Viento de variable
Viento: variable 2 km/h
Temperatura: 23°C
Rocío: 11°C
Humedad: 47%
Barómetro: 1016 hPa
Nubes: Poco nuboso
Visibilidad: 10 km
Detalles de las nubes: Poco nuboso 2134 m
2014/04/18 10:30 LEGR 181030Z VRB01KT 9999 FEW070 23/11 Q1016
LEAM - Almería, Spain
Distancia de la estación: E 326km
Actualización: 18/04/2014 12:30
Despejado
Despejado
 Viento de S
Viento: S 6 km/h
Temperatura: 21°C
Rocío: 11°C
Humedad: 53%
Barómetro: 1015 hPa
Resumen: Despejado
Visibilidad: mayor de 10 km
2014/04/18 10:30 LEAM 181030Z 19003KT 140V240 CAVOK 21/11 Q1015
LEMD - Madrid/Barajas, Spain
Distancia de la estación: NNE 402km
Actualización: 18/04/2014 12:30
Despejado
Despejado
 Viento de S
Viento: S 2 km/h
Temperatura: 23°C
Rocío: -1°C
Humedad: 20%
Barómetro: 1016 hPa
Resumen: Despejado
Visibilidad: mayor de 10 km
2014/04/18 10:30 LEMD 181030Z 18001KT CAVOK 23/M01 Q1016 NOSIG
 
LEVD - Valladolid, Spain
Distancia de la estación: N 492km
Actualización: 18/04/2014 12:30
Despejado
Despejado
 Viento de ENE
Viento: ENE 11 km/h
Temperatura: 20°C
Rocío: -5°C
Humedad: 18%
Barómetro: 1017 hPa
Resumen: Despejado
Visibilidad: mayor de 10 km
2014/04/18 10:30 LEVD 181030Z 07006KT 030V110 CAVOK 20/M05 Q1017
LEBL - Barcelona, Spain
Distancia de la estación: NE 816km
Actualización: 18/04/2014 12:30
Poco nuboso
Poco nuboso
 Viento de SO
Viento: SO 20 km/h
Temperatura: 18°C
Rocío: 13°C
Humedad: 73%
Barómetro: 1013 hPa
Nubes: Poco nuboso
Visibilidad: 10 km
Detalles de las nubes: Poco nuboso 1067 m
2014/04/18 10:30 LEBL 181030Z 22011KT 9999 FEW035 18/13 Q1013 NOSIG
LEVC - Valencia, Spain
Distancia de la estación: ENE 535km
Actualización: 18/04/2014 12:30
Despejado
Despejado
 Viento de SE
Viento: SE 6 km/h
Temperatura: 22°C
Rocío: 11°C
Humedad: 50%
Barómetro: 1014 hPa
Resumen: Despejado
Visibilidad: mayor de 10 km
2014/04/18 10:30 LEVC 181030Z 13003KT 080V230 CAVOK 22/11 Q1014 NOSIG